Terminal Aerodrome Forecast
Issued by NWS Tuscon, AZ

Home | Current Version | Previous Version | Text Only | Print | Product List | Glossary On
Versions: 1 2 3 4 5 6 7 8 9 10 11 12 13
000
FTUS45 KTWC 280528
TAFTUS
TAF
KTUS 280528Z 2806/2906 16008KT P6SM SCT130 BKN250
     FM281800 31009KT P6SM SCT100
     FM282300 19010KT P6SM SCT100 BKN250
     FM290100 20012KT P6SM VCSH BKN100=

USA.gov is the U.S. government's official web portal to all federal, state and local government web resources and services.